sensor_id;sensor_type;location;lat;lon;timestamp;temperature;humidity
40848;DHT22;26570;50.962;5.340;2023-02-01T01:01:25;6.90;99.90
40848;DHT22;26570;50.962;5.340;2023-02-01T01:04:11;6.90;99.90
40848;DHT22;26570;50.962;5.340;2023-02-01T01:06:56;7.00;99.90
40848;DHT22;26570;50.962;5.340;2023-02-01T01:09:41;7.00;99.90
40848;DHT22;26570;50.962;5.340;2023-02-01T01:12:27;7.10;99.90
40848;DHT22;26570;50.962;5.340;2023-02-01T01:15:12;7.10;99.90
40848;DHT22;26570;50.962;5.340;2023-02-01T01:17:57;7.20;99.90
40848;DHT22;26570;50.962;5.340;2023-02-01T01:20:42;7.30;99.90
40848;DHT22;26570;50.962;5.340;2023-02-01T01:23:28;7.20;99.90
40848;DHT22;26570;50.962;5.340;2023-02-01T01:26:19;7.30;99.90
40848;DHT22;26570;50.962;5.340;2023-02-01T01:29:05;7.40;99.90
40848;DHT22;26570;50.962;5.340;2023-02-01T01:31:50;7.40;99.90
40848;DHT22;26570;50.962;5.340;2023-02-01T01:34:35;7.40;99.90
40848;DHT22;26570;50.962;5.340;2023-02-01T01:37:43;7.40;99.90
40848;DHT22;26570;50.962;5.340;2023-02-01T01:40:29;7.40;99.90
40848;DHT22;26570;50.962;5.340;2023-02-01T01:43:16;7.30;99.90
40848;DHT22;26570;50.962;5.340;2023-02-01T01:46:01;7.30;99.90
40848;DHT22;26570;50.962;5.340;2023-02-01T01:48:50;7.30;99.90
40848;DHT22;26570;50.962;5.340;2023-02-01T01:51:41;7.20;99.90
40848;DHT22;26570;50.962;5.340;2023-02-01T01:57:26;7.10;99.90
40848;DHT22;26570;50.962;5.340;2023-02-01T02:00:16;6.60;99.90
40848;DHT22;26570;50.962;5.340;2023-02-01T02:03:18;7.20;99.90
40848;DHT22;26570;50.962;5.340;2023-02-01T02:06:19;7.20;99.90
40848;DHT22;26570;50.962;5.340;2023-02-01T02:09:10;7.20;99.90
40848;DHT22;26570;50.962;5.340;2023-02-01T02:12:18;7.00;99.90
40848;DHT22;26570;50.962;5.340;2023-02-01T02:15:04;7.00;99.90
40848;DHT22;26570;50.962;5.340;2023-02-01T02:17:58;7.00;99.90
40848;DHT22;26570;50.962;5.340;2023-02-01T02:24:09;7.00;99.90
40848;DHT22;26570;50.962;5.340;2023-02-01T02:36:48;6.90;99.90
40848;DHT22;26570;50.962;5.340;2023-02-01T02:39:45;7.10;99.90
40848;DHT22;26570;50.962;5.340;2023-02-01T02:46:26;7.20;99.90
40848;DHT22;26570;50.962;5.340;2023-02-01T02:53:18;7.10;99.90
40848;DHT22;26570;50.962;5.340;2023-02-01T02:56:23;7.10;99.90
40848;DHT22;26570;50.962;5.340;2023-02-01T02:59:28;7.30;99.90
40848;DHT22;26570;50.962;5.340;2023-02-01T03:02:33;7.10;99.90
40848;DHT22;26570;50.962;5.340;2023-02-01T03:05:41;7.00;99.90
40848;DHT22;26570;50.962;5.340;2023-02-01T03:08:30;7.10;99.90
40848;DHT22;26570;50.962;5.340;2023-02-01T03:11:18;7.00;99.90
40848;DHT22;26570;50.962;5.340;2023-02-01T03:14:04;6.90;99.90
40848;DHT22;26570;50.962;5.340;2023-02-01T03:16:58;7.00;99.90
40848;DHT22;26570;50.962;5.340;2023-02-01T03:20:09;7.00;99.90
40848;DHT22;26570;50.962;5.340;2023-02-01T03:23:01;6.90;99.90
40848;DHT22;26570;50.962;5.340;2023-02-01T03:25:48;6.90;99.90
40848;DHT22;26570;50.962;5.340;2023-02-01T03:28:36;6.80;99.90
40848;DHT22;26570;50.962;5.340;2023-02-01T03:31:24;6.80;99.90
40848;DHT22;26570;50.962;5.340;2023-02-01T03:34:11;6.70;99.90
40848;DHT22;26570;50.962;5.340;2023-02-01T03:37:12;6.60;99.90
40848;DHT22;26570;50.962;5.340;2023-02-01T03:40:02;6.70;99.90
40848;DHT22;26570;50.962;5.340;2023-02-01T03:42:54;6.70;99.90
40848;DHT22;26570;50.962;5.340;2023-02-01T03:45:44;6.70;99.90
40848;DHT22;26570;50.962;5.340;2023-02-01T03:48:32;6.50;99.90
40848;DHT22;26570;50.962;5.340;2023-02-01T03:51:20;6.50;99.90
40848;DHT22;26570;50.962;5.340;2023-02-01T03:54:10;6.50;99.90
40848;DHT22;26570;50.962;5.340;2023-02-01T03:56:59;6.50;99.90
40848;DHT22;26570;50.962;5.340;2023-02-01T03:59:45;6.50;99.90
40848;DHT22;26570;50.962;5.340;2023-02-01T04:02:30;6.40;99.90
40848;DHT22;26570;50.962;5.340;2023-02-01T04:05:19;6.40;99.90
40848;DHT22;26570;50.962;5.340;2023-02-01T04:08:04;6.40;99.90
40848;DHT22;26570;50.962;5.340;2023-02-01T04:10:49;6.30;99.90
40848;DHT22;26570;50.962;5.340;2023-02-01T04:13:35;6.30;99.90
40848;DHT22;26570;50.962;5.340;2023-02-01T04:16:20;6.20;99.90
40848;DHT22;26570;50.962;5.340;2023-02-01T04:19:05;6.30;99.90
40848;DHT22;26570;50.962;5.340;2023-02-01T04:21:50;6.30;99.90
40848;DHT22;26570;50.962;5.340;2023-02-01T04:24:57;6.40;99.90
40848;DHT22;26570;50.962;5.340;2023-02-01T04:27:43;6.40;99.90
40848;DHT22;26570;50.962;5.340;2023-02-01T04:30:51;6.40;99.90
40848;DHT22;26570;50.962;5.340;2023-02-01T04:33:36;6.40;99.90
40848;DHT22;26570;50.962;5.340;2023-02-01T04:36:22;6.40;99.90
40848;DHT22;26570;50.962;5.340;2023-02-01T04:39:08;6.30;99.90
40848;DHT22;26570;50.962;5.340;2023-02-01T04:41:53;6.30;99.90
40848;DHT22;26570;50.962;5.340;2023-02-01T04:44:38;6.40;99.90
40848;DHT22;26570;50.962;5.340;2023-02-01T04:47:25;6.50;99.90
40848;DHT22;26570;50.962;5.340;2023-02-01T04:50:11;6.40;99.90
40848;DHT22;26570;50.962;5.340;2023-02-01T04:52:56;6.40;99.90
40848;DHT22;26570;50.962;5.340;2023-02-01T04:55:42;6.40;99.90
40848;DHT22;26570;50.962;5.340;2023-02-01T04:58:28;6.40;99.90
40848;DHT22;26570;50.962;5.340;2023-02-01T05:01:13;6.20;99.90
40848;DHT22;26570;50.962;5.340;2023-02-01T05:03:58;6.30;99.90
40848;DHT22;26570;50.962;5.340;2023-02-01T05:06:44;6.20;99.90
40848;DHT22;26570;50.962;5.340;2023-02-01T05:09:32;6.10;99.90
40848;DHT22;26570;50.962;5.340;2023-02-01T05:12:17;6.20;99.90
40848;DHT22;26570;50.962;5.340;2023-02-01T05:15:20;6.20;99.90
40848;DHT22;26570;50.962;5.340;2023-02-01T05:18:05;6.30;99.90
40848;DHT22;26570;50.962;5.340;2023-02-01T05:20:51;6.30;99.90
40848;DHT22;26570;50.962;5.340;2023-02-01T05:23:36;6.20;99.90
40848;DHT22;26570;50.962;5.340;2023-02-01T05:26:41;6.10;99.90
40848;DHT22;26570;50.962;5.340;2023-02-01T05:29:27;6.10;99.90
40848;DHT22;26570;50.962;5.340;2023-02-01T05:32:12;6.20;99.90
40848;DHT22;26570;50.962;5.340;2023-02-01T05:34:57;6.20;99.90
40848;DHT22;26570;50.962;5.340;2023-02-01T05:37:42;6.20;99.90
40848;DHT22;26570;50.962;5.340;2023-02-01T05:40:27;6.10;99.90
40848;DHT22;26570;50.962;5.340;2023-02-01T05:43:13;6.10;99.90
40848;DHT22;26570;50.962;5.340;2023-02-01T05:45:58;6.10;99.90
40848;DHT22;26570;50.962;5.340;2023-02-01T05:48:44;6.20;99.90
40848;DHT22;26570;50.962;5.340;2023-02-01T05:51:29;6.00;99.90
40848;DHT22;26570;50.962;5.340;2023-02-01T05:54:14;6.00;99.90
40848;DHT22;26570;50.962;5.340;2023-02-01T05:56:59;5.90;99.90
40848;DHT22;26570;50.962;5.340;2023-02-01T05:59:44;5.90;99.90
40848;DHT22;26570;50.962;5.340;2023-02-01T06:02:30;6.00;99.90
40848;DHT22;26570;50.962;5.340;2023-02-01T06:05:15;6.00;99.90
40848;DHT22;26570;50.962;5.340;2023-02-01T06:08:01;6.00;99.90
40848;DHT22;26570;50.962;5.340;2023-02-01T06:10:46;6.00;99.90
40848;DHT22;26570;50.962;5.340;2023-02-01T06:13:32;6.00;99.90
40848;DHT22;26570;50.962;5.340;2023-02-01T06:16:17;6.00;99.90
40848;DHT22;26570;50.962;5.340;2023-02-01T06:19:02;5.90;99.90
40848;DHT22;26570;50.962;5.340;2023-02-01T06:22:11;5.90;99.90
40848;DHT22;26570;50.962;5.340;2023-02-01T06:24:56;6.00;99.90
40848;DHT22;26570;50.962;5.340;2023-02-01T06:27:43;6.10;99.90
40848;DHT22;26570;50.962;5.340;2023-02-01T06:30:29;6.00;99.90
40848;DHT22;26570;50.962;5.340;2023-02-01T06:33:15;6.00;99.90
40848;DHT22;26570;50.962;5.340;2023-02-01T06:36:05;6.00;99.90
40848;DHT22;26570;50.962;5.340;2023-02-01T06:38:50;5.90;99.90
40848;DHT22;26570;50.962;5.340;2023-02-01T06:41:35;6.00;99.90
40848;DHT22;26570;50.962;5.340;2023-02-01T06:44:20;5.80;99.90
40848;DHT22;26570;50.962;5.340;2023-02-01T06:47:06;5.70;99.90
40848;DHT22;26570;50.962;5.340;2023-02-01T06:49:51;5.80;99.90
40848;DHT22;26570;50.962;5.340;2023-02-01T06:52:36;5.70;99.90
40848;DHT22;26570;50.962;5.340;2023-02-01T06:55:22;5.80;99.90
40848;DHT22;26570;50.962;5.340;2023-02-01T06:58:07;5.70;99.90
40848;DHT22;26570;50.962;5.340;2023-02-01T07:00:53;5.60;99.90
40848;DHT22;26570;50.962;5.340;2023-02-01T07:03:39;5.60;99.90
40848;DHT22;26570;50.962;5.340;2023-02-01T07:06:25;5.70;99.90
40848;DHT22;26570;50.962;5.340;2023-02-01T07:09:32;5.70;99.90
40848;DHT22;26570;50.962;5.340;2023-02-01T07:12:19;5.70;99.90
40848;DHT22;26570;50.962;5.340;2023-02-01T07:15:04;5.60;99.90
40848;DHT22;26570;50.962;5.340;2023-02-01T07:17:50;5.60;99.90
40848;DHT22;26570;50.962;5.340;2023-02-01T07:20:35;5.60;99.90
40848;DHT22;26570;50.962;5.340;2023-02-01T07:23:21;5.70;99.90
40848;DHT22;26570;50.962;5.340;2023-02-01T07:26:09;5.60;99.90
40848;DHT22;26570;50.962;5.340;2023-02-01T07:28:54;5.60;99.90
40848;DHT22;26570;50.962;5.340;2023-02-01T07:31:39;5.70;99.90
40848;DHT22;26570;50.962;5.340;2023-02-01T07:34:24;5.70;99.90
40848;DHT22;26570;50.962;5.340;2023-02-01T07:37:10;5.70;99.90
40848;DHT22;26570;50.962;5.340;2023-02-01T07:40:20;5.70;99.90
40848;DHT22;26570;50.962;5.340;2023-02-01T07:43:13;5.70;99.90
40848;DHT22;26570;50.962;5.340;2023-02-01T07:45:58;5.60;99.90
40848;DHT22;26570;50.962;5.340;2023-02-01T07:48:44;5.60;99.90
40848;DHT22;26570;50.962;5.340;2023-02-01T07:51:30;5.60;99.90
40848;DHT22;26570;50.962;5.340;2023-02-01T07:54:16;5.60;99.90
40848;DHT22;26570;50.962;5.340;2023-02-01T07:57:01;5.70;99.90
40848;DHT22;26570;50.962;5.340;2023-02-01T07:59:46;5.60;99.90
40848;DHT22;26570;50.962;5.340;2023-02-01T08:03:00;5.60;99.90
40848;DHT22;26570;50.962;5.340;2023-02-01T08:05:45;5.70;99.90
40848;DHT22;26570;50.962;5.340;2023-02-01T08:08:58;5.70;99.90
40848;DHT22;26570;50.962;5.340;2023-02-01T08:11:43;5.60;99.90
40848;DHT22;26570;50.962;5.340;2023-02-01T08:14:29;5.70;99.90
40848;DHT22;26570;50.962;5.340;2023-02-01T08:17:14;5.80;99.90
40848;DHT22;26570;50.962;5.340;2023-02-01T08:20:00;5.70;99.90
40848;DHT22;26570;50.962;5.340;2023-02-01T08:22:51;5.80;99.90
40848;DHT22;26570;50.962;5.340;2023-02-01T08:25:38;5.40;99.90
40848;DHT22;26570;50.962;5.340;2023-02-01T08:28:23;6.00;99.90
40848;DHT22;26570;50.962;5.340;2023-02-01T08:31:13;6.10;99.90
40848;DHT22;26570;50.962;5.340;2023-02-01T08:34:02;6.10;99.90
40848;DHT22;26570;50.962;5.340;2023-02-01T08:36:56;6.20;99.90
40848;DHT22;26570;50.962;5.340;2023-02-01T08:39:47;6.40;99.90
40848;DHT22;26570;50.962;5.340;2023-02-01T08:42:34;6.50;99.90
40848;DHT22;26570;50.962;5.340;2023-02-01T08:46:06;6.60;99.90
40848;DHT22;26570;50.962;5.340;2023-02-01T08:49:14;6.70;99.90
40848;DHT22;26570;50.962;5.340;2023-02-01T08:51:59;6.80;99.90
40848;DHT22;26570;50.962;5.340;2023-02-01T08:54:44;6.80;99.90
40848;DHT22;26570;50.962;5.340;2023-02-01T08:57:29;6.80;99.90
40848;DHT22;26570;50.962;5.340;2023-02-01T09:00:18;6.90;99.90
40848;DHT22;26570;50.962;5.340;2023-02-01T09:03:10;6.80;99.90
40848;DHT22;26570;50.962;5.340;2023-02-01T09:06:16;6.90;99.90
40848;DHT22;26570;50.962;5.340;2023-02-01T09:09:01;6.90;99.90
40848;DHT22;26570;50.962;5.340;2023-02-01T09:11:47;7.00;99.90
40848;DHT22;26570;50.962;5.340;2023-02-01T09:14:32;6.90;99.90
40848;DHT22;26570;50.962;5.340;2023-02-01T09:17:18;7.00;99.90
40848;DHT22;26570;50.962;5.340;2023-02-01T09:20:25;7.00;99.90
40848;DHT22;26570;50.962;5.340;2023-02-01T09:23:11;6.90;99.90
40848;DHT22;26570;50.962;5.340;2023-02-01T09:26:02;6.90;99.90
40848;DHT22;26570;50.962;5.340;2023-02-01T09:28:48;7.10;99.90
40848;DHT22;26570;50.962;5.340;2023-02-01T09:31:33;7.10;99.90
40848;DHT22;26570;50.962;5.340;2023-02-01T09:34:19;7.30;99.90
40848;DHT22;26570;50.962;5.340;2023-02-01T09:37:04;7.20;99.90
40848;DHT22;26570;50.962;5.340;2023-02-01T09:39:50;7.20;99.90
40848;DHT22;26570;50.962;5.340;2023-02-01T09:46:24;7.40;99.90
40848;DHT22;26570;50.962;5.340;2023-02-01T09:49:18;7.10;99.90
40848;DHT22;26570;50.962;5.340;2023-02-01T09:52:07;7.10;99.90
40848;DHT22;26570;50.962;5.340;2023-02-01T09:55:21;7.20;99.90
40848;DHT22;26570;50.962;5.340;2023-02-01T10:01:03;7.60;99.90
40848;DHT22;26570;50.962;5.340;2023-02-01T10:03:50;7.70;99.90
40848;DHT22;26570;50.962;5.340;2023-02-01T10:07:17;7.80;99.90
40848;DHT22;26570;50.962;5.340;2023-02-01T10:10:30;7.80;99.90
40848;DHT22;26570;50.962;5.340;2023-02-01T10:14:11;8.00;99.90
40848;DHT22;26570;50.962;5.340;2023-02-01T10:20:23;8.20;99.90
40848;DHT22;26570;50.962;5.340;2023-02-01T10:29:59;8.50;99.90
40848;DHT22;26570;50.962;5.340;2023-02-01T10:32:45;8.60;99.90
40848;DHT22;26570;50.962;5.340;2023-02-01T10:35:34;8.70;99.90
40848;DHT22;26570;50.962;5.340;2023-02-01T10:38:32;8.90;99.90
40848;DHT22;26570;50.962;5.340;2023-02-01T10:41:22;9.00;99.90
40848;DHT22;26570;50.962;5.340;2023-02-01T10:44:13;9.10;99.90
40848;DHT22;26570;50.962;5.340;2023-02-01T10:47:00;9.00;99.90
40848;DHT22;26570;50.962;5.340;2023-02-01T10:52:56;9.20;99.90
40848;DHT22;26570;50.962;5.340;2023-02-01T10:55:51;9.30;99.90
40848;DHT22;26570;50.962;5.340;2023-02-01T10:58:47;9.30;99.90
40848;DHT22;26570;50.962;5.340;2023-02-01T11:01:41;9.40;99.90
40848;DHT22;26570;50.962;5.340;2023-02-01T11:04:27;9.60;99.90
40848;DHT22;26570;50.962;5.340;2023-02-01T11:07:18;9.60;99.90
40848;DHT22;26570;50.962;5.340;2023-02-01T11:10:05;9.50;99.90
40848;DHT22;26570;50.962;5.340;2023-02-01T11:13:17;9.30;99.90
40848;DHT22;26570;50.962;5.340;2023-02-01T11:16:35;9.30;99.90
40848;DHT22;26570;50.962;5.340;2023-02-01T11:20:15;9.40;99.90
40848;DHT22;26570;50.962;5.340;2023-02-01T11:23:01;9.60;99.90
40848;DHT22;26570;50.962;5.340;2023-02-01T11:25:54;9.70;99.90
40848;DHT22;26570;50.962;5.340;2023-02-01T11:28:50;9.60;99.90
40848;DHT22;26570;50.962;5.340;2023-02-01T11:31:37;9.60;99.90
40848;DHT22;26570;50.962;5.340;2023-02-01T11:34:33;9.70;99.90
40848;DHT22;26570;50.962;5.340;2023-02-01T11:37:54;9.70;99.90
40848;DHT22;26570;50.962;5.340;2023-02-01T11:40:39;9.90;99.90
40848;DHT22;26570;50.962;5.340;2023-02-01T11:43:28;10.00;99.90
40848;DHT22;26570;50.962;5.340;2023-02-01T11:46:36;10.20;99.90
40848;DHT22;26570;50.962;5.340;2023-02-01T11:49:26;10.10;99.90
40848;DHT22;26570;50.962;5.340;2023-02-01T11:58:56;9.90;99.90
40848;DHT22;26570;50.962;5.340;2023-02-01T12:06:18;9.80;99.90
40848;DHT22;26570;50.962;5.340;2023-02-01T12:15:27;9.50;99.90
40848;DHT22;26570;50.962;5.340;2023-02-01T12:27:47;9.70;99.90
40848;DHT22;26570;50.962;5.340;2023-02-01T12:40:11;9.60;99.90
40848;DHT22;26570;50.962;5.340;2023-02-01T12:46:23;9.70;99.90
40848;DHT22;26570;50.962;5.340;2023-02-01T12:49:22;9.70;99.90
40848;DHT22;26570;50.962;5.340;2023-02-01T12:52:17;9.60;99.90
40848;DHT22;26570;50.962;5.340;2023-02-01T13:04:29;9.40;99.90
40848;DHT22;26570;50.962;5.340;2023-02-01T13:07:22;9.40;99.90
40848;DHT22;26570;50.962;5.340;2023-02-01T13:10:46;9.50;99.90
40848;DHT22;26570;50.962;5.340;2023-02-01T13:14:43;9.50;99.90
40848;DHT22;26570;50.962;5.340;2023-02-01T13:17:35;9.50;99.90
40848;DHT22;26570;50.962;5.340;2023-02-01T13:20:33;9.60;99.90
40848;DHT22;26570;50.962;5.340;2023-02-01T13:23:38;9.60;99.90
40848;DHT22;26570;50.962;5.340;2023-02-01T13:26:27;9.60;99.90
40848;DHT22;26570;50.962;5.340;2023-02-01T13:29:13;9.50;99.90
40848;DHT22;26570;50.962;5.340;2023-02-01T13:32:24;9.50;99.90
40848;DHT22;26570;50.962;5.340;2023-02-01T13:35:39;9.40;99.90
40848;DHT22;26570;50.962;5.340;2023-02-01T13:38:54;9.50;99.90
40848;DHT22;26570;50.962;5.340;2023-02-01T13:42:00;9.60;99.90
40848;DHT22;26570;50.962;5.340;2023-02-01T13:44:52;9.70;99.90
40848;DHT22;26570;50.962;5.340;2023-02-01T13:48:05;9.60;99.90
40848;DHT22;26570;50.962;5.340;2023-02-01T13:50:53;9.60;99.90
40848;DHT22;26570;50.962;5.340;2023-02-01T13:53:46;9.60;99.90
40848;DHT22;26570;50.962;5.340;2023-02-01T13:56:43;9.60;99.90
40848;DHT22;26570;50.962;5.340;2023-02-01T14:02:46;9.60;99.90
40848;DHT22;26570;50.962;5.340;2023-02-01T14:08:39;9.50;99.90
40848;DHT22;26570;50.962;5.340;2023-02-01T14:11:34;9.60;99.90
40848;DHT22;26570;50.962;5.340;2023-02-01T14:20:43;9.80;99.90
40848;DHT22;26570;50.962;5.340;2023-02-01T14:23:30;9.90;99.90
40848;DHT22;26570;50.962;5.340;2023-02-01T14:26:44;9.70;99.90
40848;DHT22;26570;50.962;5.340;2023-02-01T14:29:35;9.80;99.90
40848;DHT22;26570;50.962;5.340;2023-02-01T14:32:24;9.80;99.90
40848;DHT22;26570;50.962;5.340;2023-02-01T14:35:25;9.70;99.90
40848;DHT22;26570;50.962;5.340;2023-02-01T14:38:11;9.70;99.90
40848;DHT22;26570;50.962;5.340;2023-02-01T14:41:12;9.80;99.90
40848;DHT22;26570;50.962;5.340;2023-02-01T14:47:25;9.70;99.90
40848;DHT22;26570;50.962;5.340;2023-02-01T14:53:42;9.80;99.90
40848;DHT22;26570;50.962;5.340;2023-02-01T14:56:28;9.90;99.90
40848;DHT22;26570;50.962;5.340;2023-02-01T14:59:14;9.90;99.90
40848;DHT22;26570;50.962;5.340;2023-02-01T15:02:02;10.00;99.90
40848;DHT22;26570;50.962;5.340;2023-02-01T15:05:33;9.80;99.90
40848;DHT22;26570;50.962;5.340;2023-02-01T15:08:24;9.80;99.90
40848;DHT22;26570;50.962;5.340;2023-02-01T15:11:32;9.80;99.90
40848;DHT22;26570;50.962;5.340;2023-02-01T15:14:40;9.80;99.90
40848;DHT22;26570;50.962;5.340;2023-02-01T15:17:30;9.80;99.90
40848;DHT22;26570;50.962;5.340;2023-02-01T15:20:22;9.80;99.90
40848;DHT22;26570;50.962;5.340;2023-02-01T15:23:16;9.80;99.90
40848;DHT22;26570;50.962;5.340;2023-02-01T15:26:29;9.70;99.90
40848;DHT22;26570;50.962;5.340;2023-02-01T15:29:16;9.60;99.90
40848;DHT22;26570;50.962;5.340;2023-02-01T15:32:01;9.50;99.90
40848;DHT22;26570;50.962;5.340;2023-02-01T15:34:50;9.40;99.90
40848;DHT22;26570;50.962;5.340;2023-02-01T15:37:38;9.50;99.90
40848;DHT22;26570;50.962;5.340;2023-02-01T15:40:23;9.40;99.90
40848;DHT22;26570;50.962;5.340;2023-02-01T15:43:34;9.50;99.90
40848;DHT22;26570;50.962;5.340;2023-02-01T15:46:31;9.60;99.90
40848;DHT22;26570;50.962;5.340;2023-02-01T15:52:24;9.60;99.90
40848;DHT22;26570;50.962;5.340;2023-02-01T15:55:20;9.50;99.90
40848;DHT22;26570;50.962;5.340;2023-02-01T15:58:29;9.60;99.90
40848;DHT22;26570;50.962;5.340;2023-02-01T16:01:39;9.60;99.90
40848;DHT22;26570;50.962;5.340;2023-02-01T16:04:28;9.60;99.90
40848;DHT22;26570;50.962;5.340;2023-02-01T16:07:28;9.60;99.90
40848;DHT22;26570;50.962;5.340;2023-02-01T16:10:38;9.60;99.90
40848;DHT22;26570;50.962;5.340;2023-02-01T16:13:23;9.50;99.90
40848;DHT22;26570;50.962;5.340;2023-02-01T16:16:09;9.50;99.90
40848;DHT22;26570;50.962;5.340;2023-02-01T16:18:58;9.50;99.90
40848;DHT22;26570;50.962;5.340;2023-02-01T16:22:06;9.50;99.90
40848;DHT22;26570;50.962;5.340;2023-02-01T16:24:51;9.30;99.90
40848;DHT22;26570;50.962;5.340;2023-02-01T16:27:36;9.20;99.90
40848;DHT22;26570;50.962;5.340;2023-02-01T16:30:21;9.20;99.90
40848;DHT22;26570;50.962;5.340;2023-02-01T16:33:16;9.30;99.90
40848;DHT22;26570;50.962;5.340;2023-02-01T16:36:04;9.30;99.90
40848;DHT22;26570;50.962;5.340;2023-02-01T16:39:19;9.10;99.90
40848;DHT22;26570;50.962;5.340;2023-02-01T16:42:13;9.00;99.90
40848;DHT22;26570;50.962;5.340;2023-02-01T16:45:00;9.10;99.90
40848;DHT22;26570;50.962;5.340;2023-02-01T16:48:08;9.20;99.90
40848;DHT22;26570;50.962;5.340;2023-02-01T16:50:58;9.20;99.90
40848;DHT22;26570;50.962;5.340;2023-02-01T16:53:46;9.20;99.90
40848;DHT22;26570;50.962;5.340;2023-02-01T16:56:33;9.10;99.90
40848;DHT22;26570;50.962;5.340;2023-02-01T16:59:21;9.20;99.90
40848;DHT22;26570;50.962;5.340;2023-02-01T17:02:12;9.10;99.90
40848;DHT22;26570;50.962;5.340;2023-02-01T17:04:57;9.10;99.90
40848;DHT22;26570;50.962;5.340;2023-02-01T17:08:06;9.10;99.90
40848;DHT22;26570;50.962;5.340;2023-02-01T17:10:52;8.80;99.90
40848;DHT22;26570;50.962;5.340;2023-02-01T17:13:38;9.00;99.90
40848;DHT22;26570;50.962;5.340;2023-02-01T17:16:30;9.00;99.90
40848;DHT22;26570;50.962;5.340;2023-02-01T17:19:22;9.10;99.90
40848;DHT22;26570;50.962;5.340;2023-02-01T17:22:08;9.10;99.90
40848;DHT22;26570;50.962;5.340;2023-02-01T17:24:53;9.10;99.90
40848;DHT22;26570;50.962;5.340;2023-02-01T17:27:38;9.00;99.90
40848;DHT22;26570;50.962;5.340;2023-02-01T17:30:48;9.00;99.90
40848;DHT22;26570;50.962;5.340;2023-02-01T17:33:36;9.00;99.90
40848;DHT22;26570;50.962;5.340;2023-02-01T17:36:24;8.90;99.90
40848;DHT22;26570;50.962;5.340;2023-02-01T17:39:11;8.90;99.90
40848;DHT22;26570;50.962;5.340;2023-02-01T17:42:39;8.80;99.90
40848;DHT22;26570;50.962;5.340;2023-02-01T17:46:01;8.80;99.90
40848;DHT22;26570;50.962;5.340;2023-02-01T17:48:47;8.80;99.90
40848;DHT22;26570;50.962;5.340;2023-02-01T17:51:32;8.80;99.90
40848;DHT22;26570;50.962;5.340;2023-02-01T17:54:17;8.90;99.90
40848;DHT22;26570;50.962;5.340;2023-02-01T17:57:14;8.90;99.90
40848;DHT22;26570;50.962;5.340;2023-02-01T18:00:08;8.90;99.90
40848;DHT22;26570;50.962;5.340;2023-02-01T18:03:00;8.80;99.90
40848;DHT22;26570;50.962;5.340;2023-02-01T18:05:45;8.80;99.90
40848;DHT22;26570;50.962;5.340;2023-02-01T18:08:34;8.80;99.90
40848;DHT22;26570;50.962;5.340;2023-02-01T18:11:43;8.70;99.90
40848;DHT22;26570;50.962;5.340;2023-02-01T18:14:28;8.70;99.90
40848;DHT22;26570;50.962;5.340;2023-02-01T18:17:16;8.70;99.90
40848;DHT22;26570;50.962;5.340;2023-02-01T18:20:01;8.70;99.90
40848;DHT22;26570;50.962;5.340;2023-02-01T18:23:16;8.70;99.90
40848;DHT22;26570;50.962;5.340;2023-02-01T18:26:02;8.70;99.90
40848;DHT22;26570;50.962;5.340;2023-02-01T18:28:48;8.80;99.90
40848;DHT22;26570;50.962;5.340;2023-02-01T18:31:35;8.70;99.90
40848;DHT22;26570;50.962;5.340;2023-02-01T18:34:21;8.70;99.90
40848;DHT22;26570;50.962;5.340;2023-02-01T18:37:31;8.80;99.90
40848;DHT22;26570;50.962;5.340;2023-02-01T18:40:22;8.80;99.90
40848;DHT22;26570;50.962;5.340;2023-02-01T18:43:09;8.80;99.90
40848;DHT22;26570;50.962;5.340;2023-02-01T18:45:56;9.00;99.90
40848;DHT22;26570;50.962;5.340;2023-02-01T18:48:44;9.00;99.90
40848;DHT22;26570;50.962;5.340;2023-02-01T18:51:30;9.00;99.90
40848;DHT22;26570;50.962;5.340;2023-02-01T18:54:15;9.00;99.90
40848;DHT22;26570;50.962;5.340;2023-02-01T18:57:03;9.00;99.90
40848;DHT22;26570;50.962;5.340;2023-02-01T18:59:53;9.20;99.90
40848;DHT22;26570;50.962;5.340;2023-02-01T19:02:38;9.20;99.90
40848;DHT22;26570;50.962;5.340;2023-02-01T19:05:23;9.00;99.90
40848;DHT22;26570;50.962;5.340;2023-02-01T19:08:08;9.00;99.90
40848;DHT22;26570;50.962;5.340;2023-02-01T19:10:53;9.00;99.90
40848;DHT22;26570;50.962;5.340;2023-02-01T19:13:39;8.90;99.90
40848;DHT22;26570;50.962;5.340;2023-02-01T19:16:31;8.90;99.90
40848;DHT22;26570;50.962;5.340;2023-02-01T19:19:17;8.90;99.90
40848;DHT22;26570;50.962;5.340;2023-02-01T19:22:26;8.90;99.90
40848;DHT22;26570;50.962;5.340;2023-02-01T19:25:19;8.90;99.90
40848;DHT22;26570;50.962;5.340;2023-02-01T19:28:05;8.90;99.90
40848;DHT22;26570;50.962;5.340;2023-02-01T19:31:04;8.90;99.90
40848;DHT22;26570;50.962;5.340;2023-02-01T19:33:49;8.90;99.90
40848;DHT22;26570;50.962;5.340;2023-02-01T19:36:35;8.90;99.90
40848;DHT22;26570;50.962;5.340;2023-02-01T19:39:22;9.00;99.90
40848;DHT22;26570;50.962;5.340;2023-02-01T19:42:08;9.00;99.90
40848;DHT22;26570;50.962;5.340;2023-02-01T19:44:53;9.00;99.90
40848;DHT22;26570;50.962;5.340;2023-02-01T19:47:38;9.00;99.90
40848;DHT22;26570;50.962;5.340;2023-02-01T19:50:24;9.00;99.90
40848;DHT22;26570;50.962;5.340;2023-02-01T19:53:09;9.00;99.90
40848;DHT22;26570;50.962;5.340;2023-02-01T19:55:58;8.90;99.90
40848;DHT22;26570;50.962;5.340;2023-02-01T19:58:45;8.90;99.90
40848;DHT22;26570;50.962;5.340;2023-02-01T20:01:34;8.90;99.90
40848;DHT22;26570;50.962;5.340;2023-02-01T20:04:22;8.90;99.90
40848;DHT22;26570;50.962;5.340;2023-02-01T20:07:07;9.10;99.90
40848;DHT22;26570;50.962;5.340;2023-02-01T20:09:55;9.00;99.90
40848;DHT22;26570;50.962;5.340;2023-02-01T20:12:41;8.90;99.90
40848;DHT22;26570;50.962;5.340;2023-02-01T20:15:28;8.90;99.90
40848;DHT22;26570;50.962;5.340;2023-02-01T20:18:13;8.80;99.90
40848;DHT22;26570;50.962;5.340;2023-02-01T20:21:04;8.80;99.90
40848;DHT22;26570;50.962;5.340;2023-02-01T20:23:49;8.80;99.90
40848;DHT22;26570;50.962;5.340;2023-02-01T20:26:35;8.80;99.90
40848;DHT22;26570;50.962;5.340;2023-02-01T20:29:21;8.80;99.90
40848;DHT22;26570;50.962;5.340;2023-02-01T20:32:08;8.90;99.90
40848;DHT22;26570;50.962;5.340;2023-02-01T20:34:53;8.90;99.90
40848;DHT22;26570;50.962;5.340;2023-02-01T20:37:38;8.80;99.90
40848;DHT22;26570;50.962;5.340;2023-02-01T20:40:26;8.80;99.90
40848;DHT22;26570;50.962;5.340;2023-02-01T20:43:11;8.90;99.90
40848;DHT22;26570;50.962;5.340;2023-02-01T20:45:56;8.80;99.90
40848;DHT22;26570;50.962;5.340;2023-02-01T20:48:46;8.70;99.90
40848;DHT22;26570;50.962;5.340;2023-02-01T20:51:54;8.80;99.90
40848;DHT22;26570;50.962;5.340;2023-02-01T20:54:41;8.70;99.90
40848;DHT22;26570;50.962;5.340;2023-02-01T20:57:26;8.90;99.90
40848;DHT22;26570;50.962;5.340;2023-02-01T21:00:12;8.80;99.90
40848;DHT22;26570;50.962;5.340;2023-02-01T21:02:57;8.80;99.90
40848;DHT22;26570;50.962;5.340;2023-02-01T21:05:50;8.70;99.90
40848;DHT22;26570;50.962;5.340;2023-02-01T21:08:37;8.70;99.90
40848;DHT22;26570;50.962;5.340;2023-02-01T21:11:23;8.80;99.90
40848;DHT22;26570;50.962;5.340;2023-02-01T21:14:13;8.90;99.90
40848;DHT22;26570;50.962;5.340;2023-02-01T21:17:01;8.90;99.90